sensor_id;sensor_type;location;lat;lon;timestamp;temperature;humidity
46720;DHT22;32452;51.382;-0.002;2023-07-31T00:00:27;17.40;99.90
46720;DHT22;32452;51.382;-0.002;2023-07-31T00:03:12;17.40;99.90
46720;DHT22;32452;51.382;-0.002;2023-07-31T00:05:58;17.30;99.90
46720;DHT22;32452;51.382;-0.002;2023-07-31T00:08:43;17.30;99.90
46720;DHT22;32452;51.382;-0.002;2023-07-31T00:11:29;17.30;99.90
46720;DHT22;32452;51.382;-0.002;2023-07-31T00:14:14;17.20;99.90
46720;DHT22;32452;51.382;-0.002;2023-07-31T00:17:01;17.20;99.90
46720;DHT22;32452;51.382;-0.002;2023-07-31T00:19:46;17.20;99.90
46720;DHT22;32452;51.382;-0.002;2023-07-31T00:22:35;17.10;99.90
46720;DHT22;32452;51.382;-0.002;2023-07-31T00:25:21;17.10;99.90
46720;DHT22;32452;51.382;-0.002;2023-07-31T00:28:07;17.10;99.90
46720;DHT22;32452;51.382;-0.002;2023-07-31T00:30:53;17.10;99.90
46720;DHT22;32452;51.382;-0.002;2023-07-31T00:33:39;17.10;99.90
46720;DHT22;32452;51.382;-0.002;2023-07-31T00:36:24;17.10;99.90
46720;DHT22;32452;51.382;-0.002;2023-07-31T00:39:10;17.20;99.90
46720;DHT22;32452;51.382;-0.002;2023-07-31T00:41:56;17.20;99.90
46720;DHT22;32452;51.382;-0.002;2023-07-31T00:44:41;17.20;99.90
46720;DHT22;32452;51.382;-0.002;2023-07-31T00:47:27;17.10;99.90
46720;DHT22;32452;51.382;-0.002;2023-07-31T00:50:14;17.10;99.90
46720;DHT22;32452;51.382;-0.002;2023-07-31T00:52:59;17.20;99.90
46720;DHT22;32452;51.382;-0.002;2023-07-31T00:55:45;17.20;99.90
46720;DHT22;32452;51.382;-0.002;2023-07-31T00:58:31;17.20;99.90
46720;DHT22;32452;51.382;-0.002;2023-07-31T01:01:16;17.20;99.90
46720;DHT22;32452;51.382;-0.002;2023-07-31T01:04:02;17.20;99.90
46720;DHT22;32452;51.382;-0.002;2023-07-31T01:06:56;17.20;99.90
46720;DHT22;32452;51.382;-0.002;2023-07-31T01:09:50;17.20;99.90
46720;DHT22;32452;51.382;-0.002;2023-07-31T01:12:38;17.20;99.90
46720;DHT22;32452;51.382;-0.002;2023-07-31T01:15:23;17.20;99.90
46720;DHT22;32452;51.382;-0.002;2023-07-31T01:18:09;17.20;99.90
46720;DHT22;32452;51.382;-0.002;2023-07-31T01:27:06;17.20;99.90
46720;DHT22;32452;51.382;-0.002;2023-07-31T01:30:08;17.20;99.90
46720;DHT22;32452;51.382;-0.002;2023-07-31T01:32:58;17.20;99.90
46720;DHT22;32452;51.382;-0.002;2023-07-31T01:35:48;17.20;99.90
46720;DHT22;32452;51.382;-0.002;2023-07-31T01:38:34;17.20;99.90
46720;DHT22;32452;51.382;-0.002;2023-07-31T01:41:19;17.20;99.90
46720;DHT22;32452;51.382;-0.002;2023-07-31T01:44:05;17.30;99.90
46720;DHT22;32452;51.382;-0.002;2023-07-31T01:46:51;17.30;99.90
46720;DHT22;32452;51.382;-0.002;2023-07-31T01:49:36;17.30;99.90
46720;DHT22;32452;51.382;-0.002;2023-07-31T01:52:22;17.30;99.90
46720;DHT22;32452;51.382;-0.002;2023-07-31T01:55:08;17.30;99.90
46720;DHT22;32452;51.382;-0.002;2023-07-31T01:57:53;17.30;99.90
46720;DHT22;32452;51.382;-0.002;2023-07-31T02:00:39;17.30;99.90
46720;DHT22;32452;51.382;-0.002;2023-07-31T02:03:24;17.30;99.90
46720;DHT22;32452;51.382;-0.002;2023-07-31T02:06:10;17.30;99.90
46720;DHT22;32452;51.382;-0.002;2023-07-31T02:08:56;17.30;99.90
46720;DHT22;32452;51.382;-0.002;2023-07-31T02:11:42;17.30;99.90
46720;DHT22;32452;51.382;-0.002;2023-07-31T02:14:27;17.40;99.90
46720;DHT22;32452;51.382;-0.002;2023-07-31T02:17:13;17.40;99.90
46720;DHT22;32452;51.382;-0.002;2023-07-31T02:19:59;17.40;99.90
46720;DHT22;32452;51.382;-0.002;2023-07-31T02:22:44;17.40;99.90
46720;DHT22;32452;51.382;-0.002;2023-07-31T02:25:30;17.40;99.90
46720;DHT22;32452;51.382;-0.002;2023-07-31T02:28:18;17.40;99.90
46720;DHT22;32452;51.382;-0.002;2023-07-31T02:31:04;17.40;99.90
46720;DHT22;32452;51.382;-0.002;2023-07-31T02:33:49;17.40;99.90
46720;DHT22;32452;51.382;-0.002;2023-07-31T02:36:35;17.40;99.90
46720;DHT22;32452;51.382;-0.002;2023-07-31T02:39:21;17.40;99.90
46720;DHT22;32452;51.382;-0.002;2023-07-31T02:42:07;17.40;99.90
46720;DHT22;32452;51.382;-0.002;2023-07-31T02:44:52;17.50;99.90
46720;DHT22;32452;51.382;-0.002;2023-07-31T02:47:41;17.40;99.90
46720;DHT22;32452;51.382;-0.002;2023-07-31T02:50:27;17.50;99.90
46720;DHT22;32452;51.382;-0.002;2023-07-31T02:53:15;17.50;99.90
46720;DHT22;32452;51.382;-0.002;2023-07-31T02:56:01;17.50;99.90
46720;DHT22;32452;51.382;-0.002;2023-07-31T02:58:46;17.50;99.90
46720;DHT22;32452;51.382;-0.002;2023-07-31T03:01:32;17.50;99.90
46720;DHT22;32452;51.382;-0.002;2023-07-31T03:04:17;17.50;99.90
46720;DHT22;32452;51.382;-0.002;2023-07-31T03:07:03;17.50;99.90
46720;DHT22;32452;51.382;-0.002;2023-07-31T03:09:49;17.50;99.90
46720;DHT22;32452;51.382;-0.002;2023-07-31T03:12:34;17.50;99.90
46720;DHT22;32452;51.382;-0.002;2023-07-31T03:15:20;17.50;99.90
46720;DHT22;32452;51.382;-0.002;2023-07-31T03:18:06;17.50;99.90
46720;DHT22;32452;51.382;-0.002;2023-07-31T03:20:51;17.60;99.90
46720;DHT22;32452;51.382;-0.002;2023-07-31T03:23:36;17.60;99.90
46720;DHT22;32452;51.382;-0.002;2023-07-31T03:26:22;17.60;99.90
46720;DHT22;32452;51.382;-0.002;2023-07-31T03:29:08;17.60;99.90
46720;DHT22;32452;51.382;-0.002;2023-07-31T03:31:53;17.60;99.90
46720;DHT22;32452;51.382;-0.002;2023-07-31T03:34:39;17.60;99.90
46720;DHT22;32452;51.382;-0.002;2023-07-31T03:37:25;17.60;99.90
46720;DHT22;32452;51.382;-0.002;2023-07-31T03:40:11;17.60;99.90
46720;DHT22;32452;51.382;-0.002;2023-07-31T03:42:57;17.70;99.90
46720;DHT22;32452;51.382;-0.002;2023-07-31T03:45:42;17.70;99.90
46720;DHT22;32452;51.382;-0.002;2023-07-31T03:48:28;17.70;99.90
46720;DHT22;32452;51.382;-0.002;2023-07-31T03:51:14;17.70;99.90
46720;DHT22;32452;51.382;-0.002;2023-07-31T03:54:00;17.70;99.90
46720;DHT22;32452;51.382;-0.002;2023-07-31T03:56:46;17.70;99.90
46720;DHT22;32452;51.382;-0.002;2023-07-31T03:59:31;17.70;99.90
46720;DHT22;32452;51.382;-0.002;2023-07-31T04:02:17;17.70;99.90
46720;DHT22;32452;51.382;-0.002;2023-07-31T04:05:04;17.80;99.90
46720;DHT22;32452;51.382;-0.002;2023-07-31T04:07:49;17.70;99.90
46720;DHT22;32452;51.382;-0.002;2023-07-31T04:10:35;17.70;99.90
46720;DHT22;32452;51.382;-0.002;2023-07-31T04:13:22;17.70;99.90
46720;DHT22;32452;51.382;-0.002;2023-07-31T04:16:08;17.80;99.90
46720;DHT22;32452;51.382;-0.002;2023-07-31T04:18:53;17.80;99.90
46720;DHT22;32452;51.382;-0.002;2023-07-31T04:21:39;17.80;99.90
46720;DHT22;32452;51.382;-0.002;2023-07-31T04:24:24;17.80;99.90
46720;DHT22;32452;51.382;-0.002;2023-07-31T04:27:10;17.80;99.90
46720;DHT22;32452;51.382;-0.002;2023-07-31T04:29:56;17.80;99.90
46720;DHT22;32452;51.382;-0.002;2023-07-31T04:32:41;17.80;99.90
46720;DHT22;32452;51.382;-0.002;2023-07-31T04:35:27;17.80;99.90
46720;DHT22;32452;51.382;-0.002;2023-07-31T04:38:12;17.90;99.90
46720;DHT22;32452;51.382;-0.002;2023-07-31T04:40:58;17.80;99.90
46720;DHT22;32452;51.382;-0.002;2023-07-31T04:43:43;17.80;99.90
46720;DHT22;32452;51.382;-0.002;2023-07-31T04:46:30;17.90;99.90
46720;DHT22;32452;51.382;-0.002;2023-07-31T04:49:15;17.90;99.90
46720;DHT22;32452;51.382;-0.002;2023-07-31T04:52:01;17.90;99.90
46720;DHT22;32452;51.382;-0.002;2023-07-31T04:54:47;17.90;99.90
46720;DHT22;32452;51.382;-0.002;2023-07-31T04:57:32;17.90;99.90
46720;DHT22;32452;51.382;-0.002;2023-07-31T05:00:18;17.90;99.90
46720;DHT22;32452;51.382;-0.002;2023-07-31T05:03:04;17.90;99.90
46720;DHT22;32452;51.382;-0.002;2023-07-31T05:05:50;18.00;99.90
46720;DHT22;32452;51.382;-0.002;2023-07-31T05:08:36;17.90;99.90
46720;DHT22;32452;51.382;-0.002;2023-07-31T05:11:22;18.00;99.90
46720;DHT22;32452;51.382;-0.002;2023-07-31T05:14:07;18.00;99.90
46720;DHT22;32452;51.382;-0.002;2023-07-31T05:16:53;18.00;99.90
46720;DHT22;32452;51.382;-0.002;2023-07-31T05:19:38;18.00;99.90
46720;DHT22;32452;51.382;-0.002;2023-07-31T05:22:24;18.00;99.90
46720;DHT22;32452;51.382;-0.002;2023-07-31T05:25:10;18.00;99.90
46720;DHT22;32452;51.382;-0.002;2023-07-31T05:27:55;18.00;99.90
46720;DHT22;32452;51.382;-0.002;2023-07-31T05:30:41;18.10;99.90
46720;DHT22;32452;51.382;-0.002;2023-07-31T05:33:27;18.10;99.90
46720;DHT22;32452;51.382;-0.002;2023-07-31T05:36:12;18.10;99.90
46720;DHT22;32452;51.382;-0.002;2023-07-31T05:38:58;18.10;99.90
46720;DHT22;32452;51.382;-0.002;2023-07-31T05:41:43;18.20;99.90
46720;DHT22;32452;51.382;-0.002;2023-07-31T05:44:29;18.20;99.90
46720;DHT22;32452;51.382;-0.002;2023-07-31T05:47:15;18.20;99.90
46720;DHT22;32452;51.382;-0.002;2023-07-31T05:50:01;18.30;99.90
46720;DHT22;32452;51.382;-0.002;2023-07-31T05:52:47;18.30;99.90
46720;DHT22;32452;51.382;-0.002;2023-07-31T05:55:32;18.40;99.90
46720;DHT22;32452;51.382;-0.002;2023-07-31T05:58:18;18.40;99.90
46720;DHT22;32452;51.382;-0.002;2023-07-31T06:01:04;18.40;99.90
46720;DHT22;32452;51.382;-0.002;2023-07-31T06:03:49;18.50;99.90
46720;DHT22;32452;51.382;-0.002;2023-07-31T06:06:35;18.50;99.90
46720;DHT22;32452;51.382;-0.002;2023-07-31T06:09:20;18.50;99.90
46720;DHT22;32452;51.382;-0.002;2023-07-31T06:12:06;18.60;99.90
46720;DHT22;32452;51.382;-0.002;2023-07-31T06:14:52;18.60;99.90
46720;DHT22;32452;51.382;-0.002;2023-07-31T06:17:37;18.60;99.90
46720;DHT22;32452;51.382;-0.002;2023-07-31T06:20:24;18.60;99.90
46720;DHT22;32452;51.382;-0.002;2023-07-31T06:23:10;18.70;99.90
46720;DHT22;32452;51.382;-0.002;2023-07-31T06:25:55;18.70;99.90
46720;DHT22;32452;51.382;-0.002;2023-07-31T06:28:42;18.80;99.90
46720;DHT22;32452;51.382;-0.002;2023-07-31T06:31:27;18.80;99.90
46720;DHT22;32452;51.382;-0.002;2023-07-31T06:34:13;18.90;99.90
46720;DHT22;32452;51.382;-0.002;2023-07-31T06:36:59;18.90;99.90
46720;DHT22;32452;51.382;-0.002;2023-07-31T06:39:44;19.00;99.90
46720;DHT22;32452;51.382;-0.002;2023-07-31T06:42:30;19.20;99.90
46720;DHT22;32452;51.382;-0.002;2023-07-31T06:45:16;19.20;99.90
46720;DHT22;32452;51.382;-0.002;2023-07-31T06:48:02;19.30;99.90
46720;DHT22;32452;51.382;-0.002;2023-07-31T06:50:47;19.40;99.90
46720;DHT22;32452;51.382;-0.002;2023-07-31T06:53:33;19.40;99.90
46720;DHT22;32452;51.382;-0.002;2023-07-31T06:56:19;19.40;99.90
46720;DHT22;32452;51.382;-0.002;2023-07-31T06:59:04;19.40;99.90
46720;DHT22;32452;51.382;-0.002;2023-07-31T07:01:50;19.30;99.90
46720;DHT22;32452;51.382;-0.002;2023-07-31T07:04:35;19.30;99.90
46720;DHT22;32452;51.382;-0.002;2023-07-31T07:07:22;19.30;99.90
46720;DHT22;32452;51.382;-0.002;2023-07-31T07:10:08;19.40;99.90
46720;DHT22;32452;51.382;-0.002;2023-07-31T07:12:54;19.40;99.90
46720;DHT22;32452;51.382;-0.002;2023-07-31T07:15:40;19.40;99.90
46720;DHT22;32452;51.382;-0.002;2023-07-31T07:18:26;19.40;99.90
46720;DHT22;32452;51.382;-0.002;2023-07-31T07:21:11;19.50;99.90
46720;DHT22;32452;51.382;-0.002;2023-07-31T07:24:01;19.50;99.90
46720;DHT22;32452;51.382;-0.002;2023-07-31T07:26:46;19.60;99.90
46720;DHT22;32452;51.382;-0.002;2023-07-31T07:29:34;19.60;99.90
46720;DHT22;32452;51.382;-0.002;2023-07-31T07:32:20;19.70;99.90
46720;DHT22;32452;51.382;-0.002;2023-07-31T07:35:07;19.80;99.90
46720;DHT22;32452;51.382;-0.002;2023-07-31T07:37:52;19.70;99.90
46720;DHT22;32452;51.382;-0.002;2023-07-31T07:40:42;19.80;99.90
46720;DHT22;32452;51.382;-0.002;2023-07-31T07:43:27;19.90;99.90
46720;DHT22;32452;51.382;-0.002;2023-07-31T07:46:13;20.00;99.90
46720;DHT22;32452;51.382;-0.002;2023-07-31T07:48:58;20.10;99.90
46720;DHT22;32452;51.382;-0.002;2023-07-31T07:51:44;20.20;99.90
46720;DHT22;32452;51.382;-0.002;2023-07-31T07:54:30;20.20;99.90
46720;DHT22;32452;51.382;-0.002;2023-07-31T07:57:16;20.50;99.90
46720;DHT22;32452;51.382;-0.002;2023-07-31T08:00:02;20.60;99.90
46720;DHT22;32452;51.382;-0.002;2023-07-31T08:02:48;20.60;99.90
46720;DHT22;32452;51.382;-0.002;2023-07-31T08:05:34;20.50;99.90
46720;DHT22;32452;51.382;-0.002;2023-07-31T08:08:19;20.40;99.90
46720;DHT22;32452;51.382;-0.002;2023-07-31T08:11:05;20.40;99.90
46720;DHT22;32452;51.382;-0.002;2023-07-31T08:13:50;20.40;99.90
46720;DHT22;32452;51.382;-0.002;2023-07-31T08:16:36;20.40;99.90
46720;DHT22;32452;51.382;-0.002;2023-07-31T08:19:22;20.40;99.90
46720;DHT22;32452;51.382;-0.002;2023-07-31T08:22:08;20.40;99.90
46720;DHT22;32452;51.382;-0.002;2023-07-31T08:24:54;20.40;99.90
46720;DHT22;32452;51.382;-0.002;2023-07-31T08:27:43;20.50;99.90
46720;DHT22;32452;51.382;-0.002;2023-07-31T08:30:28;20.60;99.90
46720;DHT22;32452;51.382;-0.002;2023-07-31T08:33:14;20.80;99.90
46720;DHT22;32452;51.382;-0.002;2023-07-31T08:36:00;21.10;99.90
46720;DHT22;32452;51.382;-0.002;2023-07-31T08:38:46;21.50;99.90
46720;DHT22;32452;51.382;-0.002;2023-07-31T08:41:37;21.70;99.90
46720;DHT22;32452;51.382;-0.002;2023-07-31T08:44:23;21.80;99.90
46720;DHT22;32452;51.382;-0.002;2023-07-31T08:47:10;21.70;99.90
46720;DHT22;32452;51.382;-0.002;2023-07-31T08:49:57;21.70;99.90
46720;DHT22;32452;51.382;-0.002;2023-07-31T08:52:43;21.60;99.90
46720;DHT22;32452;51.382;-0.002;2023-07-31T08:55:29;21.50;99.90
46720;DHT22;32452;51.382;-0.002;2023-07-31T08:58:17;21.40;99.90
46720;DHT22;32452;51.382;-0.002;2023-07-31T09:01:04;21.40;99.90
46720;DHT22;32452;51.382;-0.002;2023-07-31T09:03:51;21.40;99.90
46720;DHT22;32452;51.382;-0.002;2023-07-31T09:06:38;21.40;99.90
46720;DHT22;32452;51.382;-0.002;2023-07-31T09:09:25;21.30;99.90
46720;DHT22;32452;51.382;-0.002;2023-07-31T09:12:11;21.20;99.90
46720;DHT22;32452;51.382;-0.002;2023-07-31T09:14:58;21.10;99.90
46720;DHT22;32452;51.382;-0.002;2023-07-31T09:17:44;21.00;99.90
46720;DHT22;32452;51.382;-0.002;2023-07-31T09:20:30;20.90;99.90
46720;DHT22;32452;51.382;-0.002;2023-07-31T09:23:16;20.90;99.90
46720;DHT22;32452;51.382;-0.002;2023-07-31T09:26:02;21.00;99.90
46720;DHT22;32452;51.382;-0.002;2023-07-31T09:28:48;21.00;99.90
46720;DHT22;32452;51.382;-0.002;2023-07-31T09:31:43;21.00;99.90
46720;DHT22;32452;51.382;-0.002;2023-07-31T09:34:47;21.00;99.90
46720;DHT22;32452;51.382;-0.002;2023-07-31T09:37:33;20.90;99.90
46720;DHT22;32452;51.382;-0.002;2023-07-31T09:40:30;20.90;99.90
46720;DHT22;32452;51.382;-0.002;2023-07-31T09:43:20;20.90;99.90
46720;DHT22;32452;51.382;-0.002;2023-07-31T09:46:13;20.80;99.90
46720;DHT22;32452;51.382;-0.002;2023-07-31T09:49:09;20.70;99.90
46720;DHT22;32452;51.382;-0.002;2023-07-31T09:51:55;20.60;99.90
46720;DHT22;32452;51.382;-0.002;2023-07-31T09:54:41;20.60;99.90
46720;DHT22;32452;51.382;-0.002;2023-07-31T09:57:27;20.70;99.90
46720;DHT22;32452;51.382;-0.002;2023-07-31T10:00:15;20.70;99.90
46720;DHT22;32452;51.382;-0.002;2023-07-31T10:03:04;20.80;99.90
46720;DHT22;32452;51.382;-0.002;2023-07-31T10:05:50;21.00;99.90
46720;DHT22;32452;51.382;-0.002;2023-07-31T10:08:39;21.00;99.90
46720;DHT22;32452;51.382;-0.002;2023-07-31T10:11:27;21.10;99.90
46720;DHT22;32452;51.382;-0.002;2023-07-31T10:14:15;21.20;99.90
46720;DHT22;32452;51.382;-0.002;2023-07-31T10:17:02;21.40;99.90
46720;DHT22;32452;51.382;-0.002;2023-07-31T10:19:49;21.70;99.90
46720;DHT22;32452;51.382;-0.002;2023-07-31T10:22:35;21.90;99.90
46720;DHT22;32452;51.382;-0.002;2023-07-31T10:25:22;22.00;99.90
46720;DHT22;32452;51.382;-0.002;2023-07-31T10:28:08;22.00;99.40
46720;DHT22;32452;51.382;-0.002;2023-07-31T10:30:55;21.90;99.00
46720;DHT22;32452;51.382;-0.002;2023-07-31T10:33:41;21.80;98.60
46720;DHT22;32452;51.382;-0.002;2023-07-31T10:36:27;21.70;98.40
46720;DHT22;32452;51.382;-0.002;2023-07-31T10:39:35;21.60;98.20
46720;DHT22;32452;51.382;-0.002;2023-07-31T10:42:31;21.60;98.10
46720;DHT22;32452;51.382;-0.002;2023-07-31T10:45:32;21.70;98.20
46720;DHT22;32452;51.382;-0.002;2023-07-31T10:48:18;21.90;97.60
46720;DHT22;32452;51.382;-0.002;2023-07-31T10:51:11;21.90;97.30
46720;DHT22;32452;51.382;-0.002;2023-07-31T10:54:14;21.90;96.90
46720;DHT22;32452;51.382;-0.002;2023-07-31T10:57:00;21.90;96.90
46720;DHT22;32452;51.382;-0.002;2023-07-31T10:59:47;21.80;97.20
46720;DHT22;32452;51.382;-0.002;2023-07-31T11:02:33;21.90;97.40
46720;DHT22;32452;51.382;-0.002;2023-07-31T11:05:19;22.10;96.80
46720;DHT22;32452;51.382;-0.002;2023-07-31T11:08:25;22.20;96.70
46720;DHT22;32452;51.382;-0.002;2023-07-31T11:11:18;22.20;96.10
46720;DHT22;32452;51.382;-0.002;2023-07-31T11:14:05;22.20;96.00
46720;DHT22;32452;51.382;-0.002;2023-07-31T11:16:53;22.20;96.20
46720;DHT22;32452;51.382;-0.002;2023-07-31T11:19:40;22.30;96.20
46720;DHT22;32452;51.382;-0.002;2023-07-31T11:22:25;22.30;96.00
46720;DHT22;32452;51.382;-0.002;2023-07-31T11:25:12;22.20;95.70
46720;DHT22;32452;51.382;-0.002;2023-07-31T11:28:08;22.10;95.70
46720;DHT22;32452;51.382;-0.002;2023-07-31T11:30:55;22.00;95.80
46720;DHT22;32452;51.382;-0.002;2023-07-31T11:33:41;22.00;95.40
46720;DHT22;32452;51.382;-0.002;2023-07-31T11:36:27;22.10;94.50
46720;DHT22;32452;51.382;-0.002;2023-07-31T11:39:12;22.40;93.80
46720;DHT22;32452;51.382;-0.002;2023-07-31T11:42:02;22.60;91.80
46720;DHT22;32452;51.382;-0.002;2023-07-31T11:44:47;22.80;90.00
46720;DHT22;32452;51.382;-0.002;2023-07-31T11:47:34;22.80;87.70
46720;DHT22;32452;51.382;-0.002;2023-07-31T11:50:20;22.80;86.10
46720;DHT22;32452;51.382;-0.002;2023-07-31T11:53:08;22.70;84.60
46720;DHT22;32452;51.382;-0.002;2023-07-31T11:55:55;22.70;84.10
46720;DHT22;32452;51.382;-0.002;2023-07-31T11:58:41;22.70;84.10
46720;DHT22;32452;51.382;-0.002;2023-07-31T12:01:28;22.60;83.50
46720;DHT22;32452;51.382;-0.002;2023-07-31T12:04:15;22.70;83.20
46720;DHT22;32452;51.382;-0.002;2023-07-31T12:07:01;22.70;83.20
46720;DHT22;32452;51.382;-0.002;2023-07-31T12:09:56;22.80;82.70
46720;DHT22;32452;51.382;-0.002;2023-07-31T12:12:42;22.80;81.40
46720;DHT22;32452;51.382;-0.002;2023-07-31T12:15:36;22.80;80.80
46720;DHT22;32452;51.382;-0.002;2023-07-31T12:18:22;22.70;81.50
46720;DHT22;32452;51.382;-0.002;2023-07-31T12:21:09;22.60;81.70
46720;DHT22;32452;51.382;-0.002;2023-07-31T12:23:58;22.40;81.60
46720;DHT22;32452;51.382;-0.002;2023-07-31T12:26:48;22.30;82.50
46720;DHT22;32452;51.382;-0.002;2023-07-31T12:29:34;22.10;82.70
46720;DHT22;32452;51.382;-0.002;2023-07-31T12:32:26;22.00;83.60
46720;DHT22;32452;51.382;-0.002;2023-07-31T12:35:13;21.90;83.80
46720;DHT22;32452;51.382;-0.002;2023-07-31T12:38:01;21.80;84.60
46720;DHT22;32452;51.382;-0.002;2023-07-31T12:40:47;21.70;85.00
46720;DHT22;32452;51.382;-0.002;2023-07-31T12:43:37;21.60;85.40
46720;DHT22;32452;51.382;-0.002;2023-07-31T12:46:23;21.50;86.10
46720;DHT22;32452;51.382;-0.002;2023-07-31T12:49:09;21.50;86.50
46720;DHT22;32452;51.382;-0.002;2023-07-31T12:51:54;21.40;86.90
46720;DHT22;32452;51.382;-0.002;2023-07-31T12:54:40;21.40;87.50
46720;DHT22;32452;51.382;-0.002;2023-07-31T12:57:26;21.40;87.70
46720;DHT22;32452;51.382;-0.002;2023-07-31T13:00:12;21.30;88.00
46720;DHT22;32452;51.382;-0.002;2023-07-31T13:03:24;21.30;88.80
46720;DHT22;32452;51.382;-0.002;2023-07-31T13:06:10;21.20;89.80
46720;DHT22;32452;51.382;-0.002;2023-07-31T13:08:56;21.10;90.40
46720;DHT22;32452;51.382;-0.002;2023-07-31T13:11:41;21.00;90.90
46720;DHT22;32452;51.382;-0.002;2023-07-31T13:14:27;20.80;91.30
46720;DHT22;32452;51.382;-0.002;2023-07-31T13:17:14;20.70;91.70
46720;DHT22;32452;51.382;-0.002;2023-07-31T13:19:59;20.60;92.30
46720;DHT22;32452;51.382;-0.002;2023-07-31T13:22:45;20.50;93.10
46720;DHT22;32452;51.382;-0.002;2023-07-31T13:25:31;20.40;93.70
46720;DHT22;32452;51.382;-0.002;2023-07-31T13:28:17;20.30;94.30
46720;DHT22;32452;51.382;-0.002;2023-07-31T13:31:02;20.20;94.80
46720;DHT22;32452;51.382;-0.002;2023-07-31T13:33:48;20.20;95.30
46720;DHT22;32452;51.382;-0.002;2023-07-31T13:36:34;20.10;95.80
46720;DHT22;32452;51.382;-0.002;2023-07-31T13:39:19;20.10;96.20
46720;DHT22;32452;51.382;-0.002;2023-07-31T13:42:06;20.00;96.60
46720;DHT22;32452;51.382;-0.002;2023-07-31T13:44:53;20.00;97.10
46720;DHT22;32452;51.382;-0.002;2023-07-31T13:47:38;19.90;97.30
46720;DHT22;32452;51.382;-0.002;2023-07-31T13:50:25;19.80;97.50
46720;DHT22;32452;51.382;-0.002;2023-07-31T13:53:10;19.80;97.80
46720;DHT22;32452;51.382;-0.002;2023-07-31T13:55:55;19.70;98.10
46720;DHT22;32452;51.382;-0.002;2023-07-31T13:58:41;19.60;98.30
46720;DHT22;32452;51.382;-0.002;2023-07-31T14:01:27;19.50;98.20
46720;DHT22;32452;51.382;-0.002;2023-07-31T14:04:13;19.50;98.40
46720;DHT22;32452;51.382;-0.002;2023-07-31T14:06:59;19.40;98.50
46720;DHT22;32452;51.382;-0.002;2023-07-31T14:09:45;19.40;98.60
46720;DHT22;32452;51.382;-0.002;2023-07-31T14:12:31;19.30;98.80
46720;DHT22;32452;51.382;-0.002;2023-07-31T14:15:27;19.20;99.10
46720;DHT22;32452;51.382;-0.002;2023-07-31T14:18:14;19.20;99.40
46720;DHT22;32452;51.382;-0.002;2023-07-31T14:21:00;19.10;99.60
46720;DHT22;32452;51.382;-0.002;2023-07-31T14:23:46;19.10;99.70
46720;DHT22;32452;51.382;-0.002;2023-07-31T14:26:31;19.00;99.90
46720;DHT22;32452;51.382;-0.002;2023-07-31T14:29:17;19.00;99.90
46720;DHT22;32452;51.382;-0.002;2023-07-31T14:32:03;19.00;99.90
46720;DHT22;32452;51.382;-0.002;2023-07-31T14:34:48;18.90;99.90
46720;DHT22;32452;51.382;-0.002;2023-07-31T14:37:42;18.80;99.90
46720;DHT22;32452;51.382;-0.002;2023-07-31T14:40:28;18.80;99.90
46720;DHT22;32452;51.382;-0.002;2023-07-31T14:43:13;18.80;99.90
46720;DHT22;32452;51.382;-0.002;2023-07-31T14:45:59;18.70;99.90
46720;DHT22;32452;51.382;-0.002;2023-07-31T14:48:45;18.80;99.90
46720;DHT22;32452;51.382;-0.002;2023-07-31T14:51:31;18.80;99.90
46720;DHT22;32452;51.382;-0.002;2023-07-31T14:54:16;18.90;99.90
46720;DHT22;32452;51.382;-0.002;2023-07-31T14:57:02;18.90;99.90
46720;DHT22;32452;51.382;-0.002;2023-07-31T14:59:48;18.90;99.90
46720;DHT22;32452;51.382;-0.002;2023-07-31T15:02:34;18.90;99.90
46720;DHT22;32452;51.382;-0.002;2023-07-31T15:05:21;19.00;99.90
46720;DHT22;32452;51.382;-0.002;2023-07-31T15:08:07;18.90;99.90
46720;DHT22;32452;51.382;-0.002;2023-07-31T15:10:54;19.00;99.90
46720;DHT22;32452;51.382;-0.002;2023-07-31T15:13:43;19.00;99.90
46720;DHT22;32452;51.382;-0.002;2023-07-31T15:16:29;19.00;99.90
46720;DHT22;32452;51.382;-0.002;2023-07-31T15:19:16;19.00;99.90
46720;DHT22;32452;51.382;-0.002;2023-07-31T15:22:03;19.10;99.90
46720;DHT22;32452;51.382;-0.002;2023-07-31T15:24:48;19.30;99.90
46720;DHT22;32452;51.382;-0.002;2023-07-31T15:27:34;19.40;99.90
46720;DHT22;32452;51.382;-0.002;2023-07-31T15:30:20;19.60;99.90
46720;DHT22;32452;51.382;-0.002;2023-07-31T15:33:05;19.80;99.90
46720;DHT22;32452;51.382;-0.002;2023-07-31T15:35:51;19.80;99.90
46720;DHT22;32452;51.382;-0.002;2023-07-31T15:38:40;19.90;99.90
46720;DHT22;32452;51.382;-0.002;2023-07-31T15:41:25;20.00;99.90
46720;DHT22;32452;51.382;-0.002;2023-07-31T15:44:11;20.00;99.90
46720;DHT22;32452;51.382;-0.002;2023-07-31T15:46:57;20.00;99.90
46720;DHT22;32452;51.382;-0.002;2023-07-31T15:49:42;20.00;99.90
46720;DHT22;32452;51.382;-0.002;2023-07-31T15:52:28;20.00;99.90
46720;DHT22;32452;51.382;-0.002;2023-07-31T15:55:14;20.10;99.80
46720;DHT22;32452;51.382;-0.002;2023-07-31T15:58:00;20.20;99.50
46720;DHT22;32452;51.382;-0.002;2023-07-31T16:00:46;20.20;99.40
46720;DHT22;32452;51.382;-0.002;2023-07-31T16:03:32;20.30;99.20
46720;DHT22;32452;51.382;-0.002;2023-07-31T16:06:18;20.30;99.20
46720;DHT22;32452;51.382;-0.002;2023-07-31T16:09:04;20.40;99.00
46720;DHT22;32452;51.382;-0.002;2023-07-31T16:11:49;20.40;98.80
46720;DHT22;32452;51.382;-0.002;2023-07-31T16:14:35;20.50;98.70
46720;DHT22;32452;51.382;-0.002;2023-07-31T16:17:21;20.60;98.30
46720;DHT22;32452;51.382;-0.002;2023-07-31T16:20:07;20.50;97.90
46720;DHT22;32452;51.382;-0.002;2023-07-31T16:22:54;20.60;97.50
46720;DHT22;32452;51.382;-0.002;2023-07-31T16:25:40;20.50;97.40
46720;DHT22;32452;51.382;-0.002;2023-07-31T16:28:25;20.60;97.50
46720;DHT22;32452;51.382;-0.002;2023-07-31T16:31:11;20.60;97.20
46720;DHT22;32452;51.382;-0.002;2023-07-31T16:33:56;20.60;96.30
46720;DHT22;32452;51.382;-0.002;2023-07-31T16:36:43;20.60;95.40
46720;DHT22;32452;51.382;-0.002;2023-07-31T16:39:29;20.50;94.40
46720;DHT22;32452;51.382;-0.002;2023-07-31T16:42:21;20.40;94.10
46720;DHT22;32452;51.382;-0.002;2023-07-31T16:45:07;20.40;93.70
46720;DHT22;32452;51.382;-0.002;2023-07-31T16:47:53;20.30;93.50
46720;DHT22;32452;51.382;-0.002;2023-07-31T16:50:39;20.30;93.30
46720;DHT22;32452;51.382;-0.002;2023-07-31T16:53:25;20.20;93.20
46720;DHT22;32452;51.382;-0.002;2023-07-31T16:56:10;20.10;93.20
46720;DHT22;32452;51.382;-0.002;2023-07-31T16:58:56;20.00;92.90
46720;DHT22;32452;51.382;-0.002;2023-07-31T17:01:41;19.90;92.70
46720;DHT22;32452;51.382;-0.002;2023-07-31T17:04:28;19.80;92.50
46720;DHT22;32452;51.382;-0.002;2023-07-31T17:07:16;19.70;92.60
46720;DHT22;32452;51.382;-0.002;2023-07-31T17:10:03;19.70;92.80
46720;DHT22;32452;51.382;-0.002;2023-07-31T17:12:48;19.60;92.80
46720;DHT22;32452;51.382;-0.002;2023-07-31T17:15:34;19.60;92.80
46720;DHT22;32452;51.382;-0.002;2023-07-31T17:18:20;19.60;92.80
46720;DHT22;32452;51.382;-0.002;2023-07-31T17:21:06;19.60;92.30